sensor_id;sensor_type;location;lat;lon;timestamp;P1;durP1;ratioP1;P2;durP2;ratioP2
53261;SDS011;39658;51.090;-1.786;2022-09-03T00:01:46;19.02;;;15.45;;
53261;SDS011;39658;51.090;-1.786;2022-09-03T00:04:18;19.53;;;14.77;;
53261;SDS011;39658;51.090;-1.786;2022-09-03T00:09:22;16.23;;;13.68;;
53261;SDS011;39658;51.090;-1.786;2022-09-03T00:11:54;18.60;;;13.95;;
53261;SDS011;39658;51.090;-1.786;2022-09-03T00:14:31;17.23;;;13.02;;
53261;SDS011;39658;51.090;-1.786;2022-09-03T00:17:04;17.17;;;12.70;;
53261;SDS011;39658;51.090;-1.786;2022-09-03T00:22:11;15.32;;;11.65;;
53261;SDS011;39658;51.090;-1.786;2022-09-03T00:24:42;13.38;;;10.10;;
53261;SDS011;39658;51.090;-1.786;2022-09-03T00:27:12;14.63;;;11.48;;
53261;SDS011;39658;51.090;-1.786;2022-09-03T00:29:44;14.47;;;11.77;;
53261;SDS011;39658;51.090;-1.786;2022-09-03T00:32:18;16.20;;;13.30;;
53261;SDS011;39658;51.090;-1.786;2022-09-03T00:34:50;19.20;;;15.82;;
53261;SDS011;39658;51.090;-1.786;2022-09-03T00:37:23;23.52;;;14.93;;
53261;SDS011;39658;51.090;-1.786;2022-09-03T00:39:52;18.85;;;16.75;;
53261;SDS011;39658;51.090;-1.786;2022-09-03T00:42:24;19.30;;;16.27;;
53261;SDS011;39658;51.090;-1.786;2022-09-03T00:45:09;18.40;;;15.98;;
53261;SDS011;39658;51.090;-1.786;2022-09-03T00:47:51;15.98;;;14.30;;
53261;SDS011;39658;51.090;-1.786;2022-09-03T00:50:28;18.30;;;13.93;;
53261;SDS011;39658;51.090;-1.786;2022-09-03T00:53:04;19.42;;;14.57;;
53261;SDS011;39658;51.090;-1.786;2022-09-03T00:55:39;20.75;;;14.65;;
53261;SDS011;39658;51.090;-1.786;2022-09-03T00:58:28;16.27;;;13.60;;
53261;SDS011;39658;51.090;-1.786;2022-09-03T01:01:04;18.08;;;13.85;;
53261;SDS011;39658;51.090;-1.786;2022-09-03T01:03:40;15.63;;;13.30;;
53261;SDS011;39658;51.090;-1.786;2022-09-03T01:06:16;16.27;;;13.30;;
53261;SDS011;39658;51.090;-1.786;2022-09-03T01:08:55;17.73;;;13.65;;
53261;SDS011;39658;51.090;-1.786;2022-09-03T01:11:36;14.77;;;13.18;;
53261;SDS011;39658;51.090;-1.786;2022-09-03T01:14:16;15.50;;;13.90;;
53261;SDS011;39658;51.090;-1.786;2022-09-03T01:16:54;17.83;;;14.77;;
53261;SDS011;39658;51.090;-1.786;2022-09-03T01:19:37;20.58;;;15.10;;
53261;SDS011;39658;51.090;-1.786;2022-09-03T01:25:53;22.98;;;17.63;;
53261;SDS011;39658;51.090;-1.786;2022-09-03T01:31:24;23.27;;;20.85;;
53261;SDS011;39658;51.090;-1.786;2022-09-03T01:34:03;25.10;;;22.73;;
53261;SDS011;39658;51.090;-1.786;2022-09-03T01:36:41;23.63;;;21.08;;
53261;SDS011;39658;51.090;-1.786;2022-09-03T01:39:17;24.20;;;21.60;;
53261;SDS011;39658;51.090;-1.786;2022-09-03T01:41:57;24.63;;;21.17;;
53261;SDS011;39658;51.090;-1.786;2022-09-03T01:44:48;18.88;;;16.13;;
53261;SDS011;39658;51.090;-1.786;2022-09-03T01:47:35;15.60;;;13.93;;
53261;SDS011;39658;51.090;-1.786;2022-09-03T01:50:19;18.23;;;14.15;;
53261;SDS011;39658;51.090;-1.786;2022-09-03T01:52:54;19.50;;;13.77;;
53261;SDS011;39658;51.090;-1.786;2022-09-03T01:55:28;17.77;;;15.20;;
53261;SDS011;39658;51.090;-1.786;2022-09-03T01:57:59;19.67;;;15.70;;
53261;SDS011;39658;51.090;-1.786;2022-09-03T02:00:33;17.17;;;14.77;;
53261;SDS011;39658;51.090;-1.786;2022-09-03T02:03:05;17.50;;;15.30;;
53261;SDS011;39658;51.090;-1.786;2022-09-03T02:05:34;21.38;;;16.88;;
53261;SDS011;39658;51.090;-1.786;2022-09-03T02:08:01;25.05;;;22.45;;
53261;SDS011;39658;51.090;-1.786;2022-09-03T02:10:31;26.55;;;22.25;;
53261;SDS011;39658;51.090;-1.786;2022-09-03T02:13:04;34.97;;;31.30;;
53261;SDS011;39658;51.090;-1.786;2022-09-03T02:15:37;35.67;;;31.92;;
53261;SDS011;39658;51.090;-1.786;2022-09-03T02:18:08;37.58;;;32.75;;
53261;SDS011;39658;51.090;-1.786;2022-09-03T02:20:38;31.88;;;28.65;;
53261;SDS011;39658;51.090;-1.786;2022-09-03T02:23:05;29.33;;;25.35;;
53261;SDS011;39658;51.090;-1.786;2022-09-03T02:25:33;27.08;;;22.40;;
53261;SDS011;39658;51.090;-1.786;2022-09-03T02:28:03;25.65;;;22.50;;
53261;SDS011;39658;51.090;-1.786;2022-09-03T02:30:31;27.33;;;24.20;;
53261;SDS011;39658;51.090;-1.786;2022-09-03T02:33:00;29.48;;;26.35;;
53261;SDS011;39658;51.090;-1.786;2022-09-03T02:35:27;32.28;;;29.08;;
53261;SDS011;39658;51.090;-1.786;2022-09-03T02:37:54;31.63;;;28.30;;
53261;SDS011;39658;51.090;-1.786;2022-09-03T02:40:20;34.63;;;31.05;;
53261;SDS011;39658;51.090;-1.786;2022-09-03T02:42:47;31.60;;;28.20;;
53261;SDS011;39658;51.090;-1.786;2022-09-03T02:45:22;32.85;;;26.48;;
53261;SDS011;39658;51.090;-1.786;2022-09-03T02:47:53;25.63;;;22.92;;
53261;SDS011;39658;51.090;-1.786;2022-09-03T02:50:23;24.50;;;21.90;;
53261;SDS011;39658;51.090;-1.786;2022-09-03T02:52:50;23.73;;;21.27;;
53261;SDS011;39658;51.090;-1.786;2022-09-03T02:55:17;25.33;;;20.92;;
53261;SDS011;39658;51.090;-1.786;2022-09-03T02:57:44;23.80;;;21.40;;
53261;SDS011;39658;51.090;-1.786;2022-09-03T03:00:12;23.52;;;21.13;;
53261;SDS011;39658;51.090;-1.786;2022-09-03T03:02:39;23.67;;;20.70;;
53261;SDS011;39658;51.090;-1.786;2022-09-03T03:05:07;23.85;;;21.40;;
53261;SDS011;39658;51.090;-1.786;2022-09-03T03:07:41;29.48;;;23.90;;
53261;SDS011;39658;51.090;-1.786;2022-09-03T03:10:08;40.83;;;36.40;;
53261;SDS011;39658;51.090;-1.786;2022-09-03T03:12:36;38.90;;;34.92;;
53261;SDS011;39658;51.090;-1.786;2022-09-03T03:15:04;41.35;;;35.35;;
53261;SDS011;39658;51.090;-1.786;2022-09-03T03:17:32;53.90;;;48.03;;
53261;SDS011;39658;51.090;-1.786;2022-09-03T03:19:58;51.58;;;44.15;;
53261;SDS011;39658;51.090;-1.786;2022-09-03T03:22:25;67.75;;;45.15;;
53261;SDS011;39658;51.090;-1.786;2022-09-03T03:24:53;63.25;;;42.63;;
53261;SDS011;39658;51.090;-1.786;2022-09-03T03:27:21;68.43;;;40.92;;
53261;SDS011;39658;51.090;-1.786;2022-09-03T03:29:48;176.60;;;42.72;;
53261;SDS011;39658;51.090;-1.786;2022-09-03T03:32:16;100.25;;;42.85;;
53261;SDS011;39658;51.090;-1.786;2022-09-03T03:34:43;63.13;;;44.78;;
53261;SDS011;39658;51.090;-1.786;2022-09-03T03:37:09;152.85;;;43.25;;
53261;SDS011;39658;51.090;-1.786;2022-09-03T03:39:36;185.10;;;45.35;;
53261;SDS011;39658;51.090;-1.786;2022-09-03T03:42:04;103.53;;;44.55;;
53261;SDS011;39658;51.090;-1.786;2022-09-03T03:44:31;85.70;;;49.25;;
53261;SDS011;39658;51.090;-1.786;2022-09-03T03:46:58;65.57;;;47.05;;
53261;SDS011;39658;51.090;-1.786;2022-09-03T03:49:25;53.63;;;46.97;;
53261;SDS011;39658;51.090;-1.786;2022-09-03T03:51:52;54.33;;;43.85;;
53261;SDS011;39658;51.090;-1.786;2022-09-03T03:54:18;44.60;;;39.80;;
53261;SDS011;39658;51.090;-1.786;2022-09-03T03:56:46;46.13;;;41.13;;
53261;SDS011;39658;51.090;-1.786;2022-09-03T03:59:14;47.53;;;41.97;;
53261;SDS011;39658;51.090;-1.786;2022-09-03T04:01:41;40.25;;;36.17;;
53261;SDS011;39658;51.090;-1.786;2022-09-03T04:04:08;39.30;;;35.33;;
53261;SDS011;39658;51.090;-1.786;2022-09-03T04:06:35;37.00;;;33.15;;
53261;SDS011;39658;51.090;-1.786;2022-09-03T04:09:01;38.67;;;34.58;;
53261;SDS011;39658;51.090;-1.786;2022-09-03T04:11:28;37.38;;;33.58;;
53261;SDS011;39658;51.090;-1.786;2022-09-03T04:13:55;55.85;;;37.78;;
53261;SDS011;39658;51.090;-1.786;2022-09-03T04:16:24;58.72;;;38.60;;
53261;SDS011;39658;51.090;-1.786;2022-09-03T04:18:53;49.20;;;38.53;;
53261;SDS011;39658;51.090;-1.786;2022-09-03T04:21:21;34.97;;;31.20;;
53261;SDS011;39658;51.090;-1.786;2022-09-03T04:23:49;40.67;;;31.50;;
53261;SDS011;39658;51.090;-1.786;2022-09-03T04:26:18;47.28;;;31.48;;
53261;SDS011;39658;51.090;-1.786;2022-09-03T04:28:46;54.92;;;36.42;;
53261;SDS011;39658;51.090;-1.786;2022-09-03T04:31:14;64.88;;;38.22;;
53261;SDS011;39658;51.090;-1.786;2022-09-03T04:33:44;72.80;;;39.28;;
53261;SDS011;39658;51.090;-1.786;2022-09-03T04:36:12;72.22;;;41.20;;
53261;SDS011;39658;51.090;-1.786;2022-09-03T04:38:41;77.10;;;43.35;;
53261;SDS011;39658;51.090;-1.786;2022-09-03T04:41:10;81.57;;;41.78;;
53261;SDS011;39658;51.090;-1.786;2022-09-03T04:43:38;99.13;;;44.03;;
53261;SDS011;39658;51.090;-1.786;2022-09-03T04:46:06;184.45;;;45.78;;
53261;SDS011;39658;51.090;-1.786;2022-09-03T04:48:34;200.57;;;46.22;;
53261;SDS011;39658;51.090;-1.786;2022-09-03T04:51:04;100.70;;;41.33;;
53261;SDS011;39658;51.090;-1.786;2022-09-03T04:53:33;254.55;;;47.92;;
53261;SDS011;39658;51.090;-1.786;2022-09-03T04:56:01;275.50;;;50.55;;
53261;SDS011;39658;51.090;-1.786;2022-09-03T04:58:28;306.77;;;49.15;;
53261;SDS011;39658;51.090;-1.786;2022-09-03T05:00:55;78.85;;;41.67;;
53261;SDS011;39658;51.090;-1.786;2022-09-03T05:03:22;265.92;;;51.85;;
53261;SDS011;39658;51.090;-1.786;2022-09-03T05:05:52;149.20;;;49.25;;
53261;SDS011;39658;51.090;-1.786;2022-09-03T05:08:21;169.52;;;51.22;;
53261;SDS011;39658;51.090;-1.786;2022-09-03T05:10:48;139.40;;;50.05;;
53261;SDS011;39658;51.090;-1.786;2022-09-03T05:13:15;178.63;;;49.80;;
53261;SDS011;39658;51.090;-1.786;2022-09-03T05:15:42;202.10;;;51.25;;
53261;SDS011;39658;51.090;-1.786;2022-09-03T05:18:09;131.80;;;53.45;;
53261;SDS011;39658;51.090;-1.786;2022-09-03T05:20:37;207.15;;;56.67;;
53261;SDS011;39658;51.090;-1.786;2022-09-03T05:23:04;133.50;;;54.80;;
53261;SDS011;39658;51.090;-1.786;2022-09-03T05:25:32;190.60;;;58.28;;
53261;SDS011;39658;51.090;-1.786;2022-09-03T05:28:02;193.52;;;50.85;;
53261;SDS011;39658;51.090;-1.786;2022-09-03T05:30:29;143.57;;;52.70;;
53261;SDS011;39658;51.090;-1.786;2022-09-03T05:32:56;117.88;;;53.10;;
53261;SDS011;39658;51.090;-1.786;2022-09-03T05:35:22;258.83;;;53.58;;
53261;SDS011;39658;51.090;-1.786;2022-09-03T05:37:50;330.45;;;49.50;;
53261;SDS011;39658;51.090;-1.786;2022-09-03T05:40:20;303.63;;;53.33;;
53261;SDS011;39658;51.090;-1.786;2022-09-03T05:42:48;140.10;;;51.83;;
53261;SDS011;39658;51.090;-1.786;2022-09-03T05:45:20;154.90;;;53.03;;
53261;SDS011;39658;51.090;-1.786;2022-09-03T05:47:47;173.77;;;53.88;;
53261;SDS011;39658;51.090;-1.786;2022-09-03T05:50:14;89.45;;;53.13;;
53261;SDS011;39658;51.090;-1.786;2022-09-03T05:52:41;110.80;;;52.33;;
53261;SDS011;39658;51.090;-1.786;2022-09-03T05:55:08;69.45;;;48.70;;
53261;SDS011;39658;51.090;-1.786;2022-09-03T05:57:35;69.32;;;47.35;;
53261;SDS011;39658;51.090;-1.786;2022-09-03T06:00:04;72.93;;;46.88;;
53261;SDS011;39658;51.090;-1.786;2022-09-03T06:02:31;64.20;;;47.33;;
53261;SDS011;39658;51.090;-1.786;2022-09-03T06:04:58;69.70;;;46.45;;
53261;SDS011;39658;51.090;-1.786;2022-09-03T06:07:25;58.53;;;45.05;;
53261;SDS011;39658;51.090;-1.786;2022-09-03T06:09:52;65.18;;;45.58;;
53261;SDS011;39658;51.090;-1.786;2022-09-03T06:12:19;53.88;;;41.70;;
53261;SDS011;39658;51.090;-1.786;2022-09-03T06:14:45;51.05;;;40.25;;
53261;SDS011;39658;51.090;-1.786;2022-09-03T06:17:13;52.75;;;40.35;;
53261;SDS011;39658;51.090;-1.786;2022-09-03T06:19:40;49.05;;;37.80;;
53261;SDS011;39658;51.090;-1.786;2022-09-03T06:22:07;44.95;;;37.05;;
53261;SDS011;39658;51.090;-1.786;2022-09-03T06:24:34;49.35;;;37.95;;
53261;SDS011;39658;51.090;-1.786;2022-09-03T06:27:00;47.80;;;37.78;;
53261;SDS011;39658;51.090;-1.786;2022-09-03T06:29:27;55.08;;;38.55;;
53261;SDS011;39658;51.090;-1.786;2022-09-03T06:31:54;60.08;;;41.38;;
53261;SDS011;39658;51.090;-1.786;2022-09-03T06:34:22;56.47;;;42.35;;
53261;SDS011;39658;51.090;-1.786;2022-09-03T06:36:51;50.00;;;39.80;;
53261;SDS011;39658;51.090;-1.786;2022-09-03T06:39:18;53.75;;;39.45;;
53261;SDS011;39658;51.090;-1.786;2022-09-03T06:41:44;51.00;;;38.03;;
53261;SDS011;39658;51.090;-1.786;2022-09-03T06:44:15;47.90;;;38.50;;
53261;SDS011;39658;51.090;-1.786;2022-09-03T06:46:43;49.33;;;37.13;;
53261;SDS011;39658;51.090;-1.786;2022-09-03T06:49:10;45.15;;;36.35;;
53261;SDS011;39658;51.090;-1.786;2022-09-03T06:51:38;43.15;;;34.88;;
53261;SDS011;39658;51.090;-1.786;2022-09-03T06:54:07;41.00;;;35.53;;
53261;SDS011;39658;51.090;-1.786;2022-09-03T06:56:36;37.47;;;32.33;;
53261;SDS011;39658;51.090;-1.786;2022-09-03T06:59:06;40.50;;;31.63;;
53261;SDS011;39658;51.090;-1.786;2022-09-03T07:01:34;40.60;;;31.27;;
53261;SDS011;39658;51.090;-1.786;2022-09-03T07:04:05;42.25;;;32.40;;
53261;SDS011;39658;51.090;-1.786;2022-09-03T07:06:34;40.63;;;30.83;;
53261;SDS011;39658;51.090;-1.786;2022-09-03T07:09:04;40.30;;;29.67;;
53261;SDS011;39658;51.090;-1.786;2022-09-03T07:11:30;42.05;;;30.48;;
53261;SDS011;39658;51.090;-1.786;2022-09-03T07:14:00;41.97;;;29.75;;
53261;SDS011;39658;51.090;-1.786;2022-09-03T07:16:28;40.67;;;31.17;;
53261;SDS011;39658;51.090;-1.786;2022-09-03T07:18:57;46.95;;;31.10;;
53261;SDS011;39658;51.090;-1.786;2022-09-03T07:21:25;39.13;;;31.45;;
53261;SDS011;39658;51.090;-1.786;2022-09-03T07:23:53;40.15;;;30.00;;
53261;SDS011;39658;51.090;-1.786;2022-09-03T07:26:23;40.20;;;31.20;;
53261;SDS011;39658;51.090;-1.786;2022-09-03T07:28:51;40.08;;;31.02;;
53261;SDS011;39658;51.090;-1.786;2022-09-03T07:31:19;37.45;;;29.98;;
53261;SDS011;39658;51.090;-1.786;2022-09-03T07:33:50;40.47;;;31.83;;
53261;SDS011;39658;51.090;-1.786;2022-09-03T07:36:19;34.78;;;29.30;;
53261;SDS011;39658;51.090;-1.786;2022-09-03T07:38:45;38.40;;;28.65;;
53261;SDS011;39658;51.090;-1.786;2022-09-03T07:41:13;34.55;;;29.17;;
53261;SDS011;39658;51.090;-1.786;2022-09-03T07:43:42;36.58;;;29.20;;
53261;SDS011;39658;51.090;-1.786;2022-09-03T07:46:11;35.47;;;27.58;;
53261;SDS011;39658;51.090;-1.786;2022-09-03T07:48:38;32.05;;;26.85;;
53261;SDS011;39658;51.090;-1.786;2022-09-03T07:51:06;31.95;;;25.83;;
53261;SDS011;39658;51.090;-1.786;2022-09-03T07:53:33;29.98;;;25.15;;
53261;SDS011;39658;51.090;-1.786;2022-09-03T07:56:01;35.63;;;26.45;;
53261;SDS011;39658;51.090;-1.786;2022-09-03T07:58:29;35.17;;;26.57;;
53261;SDS011;39658;51.090;-1.786;2022-09-03T08:01:02;32.55;;;26.48;;
53261;SDS011;39658;51.090;-1.786;2022-09-03T08:03:30;33.00;;;26.67;;
53261;SDS011;39658;51.090;-1.786;2022-09-03T08:05:59;30.70;;;26.13;;
53261;SDS011;39658;51.090;-1.786;2022-09-03T08:08:27;31.20;;;26.42;;
53261;SDS011;39658;51.090;-1.786;2022-09-03T08:10:54;32.33;;;26.08;;
53261;SDS011;39658;51.090;-1.786;2022-09-03T08:13:22;28.85;;;22.98;;
53261;SDS011;39658;51.090;-1.786;2022-09-03T08:15:52;26.40;;;22.05;;
53261;SDS011;39658;51.090;-1.786;2022-09-03T08:18:21;33.45;;;23.63;;
53261;SDS011;39658;51.090;-1.786;2022-09-03T08:20:48;32.22;;;25.55;;
53261;SDS011;39658;51.090;-1.786;2022-09-03T08:23:15;32.45;;;24.83;;
53261;SDS011;39658;51.090;-1.786;2022-09-03T08:25:41;24.17;;;18.33;;
53261;SDS011;39658;51.090;-1.786;2022-09-03T08:28:08;28.55;;;24.05;;
53261;SDS011;39658;51.090;-1.786;2022-09-03T08:30:35;27.38;;;23.35;;
53261;SDS011;39658;51.090;-1.786;2022-09-03T08:33:02;27.13;;;24.15;;
53261;SDS011;39658;51.090;-1.786;2022-09-03T08:35:32;29.48;;;24.38;;
53261;SDS011;39658;51.090;-1.786;2022-09-03T08:38:03;28.83;;;25.70;;
53261;SDS011;39658;51.090;-1.786;2022-09-03T08:40:31;31.27;;;24.80;;
53261;SDS011;39658;51.090;-1.786;2022-09-03T08:43:02;29.00;;;25.90;;
53261;SDS011;39658;51.090;-1.786;2022-09-03T08:45:40;23.50;;;19.42;;
53261;SDS011;39658;51.090;-1.786;2022-09-03T08:48:09;22.38;;;19.95;;
53261;SDS011;39658;51.090;-1.786;2022-09-03T08:50:43;23.38;;;20.23;;
53261;SDS011;39658;51.090;-1.786;2022-09-03T08:53:14;25.40;;;22.70;;
53261;SDS011;39658;51.090;-1.786;2022-09-03T08:55:49;24.83;;;21.50;;
53261;SDS011;39658;51.090;-1.786;2022-09-03T08:58:18;26.10;;;23.08;;
53261;SDS011;39658;51.090;-1.786;2022-09-03T09:00:47;26.05;;;23.25;;
53261;SDS011;39658;51.090;-1.786;2022-09-03T09:06:16;25.05;;;22.40;;
53261;SDS011;39658;51.090;-1.786;2022-09-03T09:08:52;22.77;;;20.38;;
53261;SDS011;39658;51.090;-1.786;2022-09-03T09:11:31;22.77;;;19.98;;
53261;SDS011;39658;51.090;-1.786;2022-09-03T09:14:08;22.67;;;19.70;;
53261;SDS011;39658;51.090;-1.786;2022-09-03T09:16:43;21.45;;;18.17;;
53261;SDS011;39658;51.090;-1.786;2022-09-03T09:19:22;17.63;;;15.48;;
53261;SDS011;39658;51.090;-1.786;2022-09-03T09:22:00;17.13;;;15.33;;
53261;SDS011;39658;51.090;-1.786;2022-09-03T09:24:32;16.13;;;13.13;;
53261;SDS011;39658;51.090;-1.786;2022-09-03T09:27:04;13.50;;;11.77;;
53261;SDS011;39658;51.090;-1.786;2022-09-03T09:29:34;16.10;;;11.50;;
53261;SDS011;39658;51.090;-1.786;2022-09-03T09:32:04;14.23;;;12.48;;
53261;SDS011;39658;51.090;-1.786;2022-09-03T09:34:34;13.98;;;12.05;;
53261;SDS011;39658;51.090;-1.786;2022-09-03T09:37:05;13.98;;;11.65;;
53261;SDS011;39658;51.090;-1.786;2022-09-03T09:39:35;14.32;;;11.90;;
53261;SDS011;39658;51.090;-1.786;2022-09-03T09:42:04;14.10;;;11.27;;
53261;SDS011;39658;51.090;-1.786;2022-09-03T09:44:34;14.20;;;11.10;;
53261;SDS011;39658;51.090;-1.786;2022-09-03T09:47:04;13.23;;;11.20;;
53261;SDS011;39658;51.090;-1.786;2022-09-03T09:49:34;14.32;;;11.45;;
53261;SDS011;39658;51.090;-1.786;2022-09-03T09:52:08;13.75;;;10.68;;
53261;SDS011;39658;51.090;-1.786;2022-09-03T09:54:37;12.85;;;9.95;;
53261;SDS011;39658;51.090;-1.786;2022-09-03T09:57:05;14.95;;;11.00;;
53261;SDS011;39658;51.090;-1.786;2022-09-03T09:59:33;15.20;;;11.73;;
53261;SDS011;39658;51.090;-1.786;2022-09-03T10:02:11;17.90;;;11.95;;
53261;SDS011;39658;51.090;-1.786;2022-09-03T10:04:40;14.13;;;12.13;;
53261;SDS011;39658;51.090;-1.786;2022-09-03T10:07:24;14.82;;;11.90;;
53261;SDS011;39658;51.090;-1.786;2022-09-03T10:09:59;14.82;;;12.10;;
53261;SDS011;39658;51.090;-1.786;2022-09-03T10:12:29;15.40;;;12.32;;
53261;SDS011;39658;51.090;-1.786;2022-09-03T10:15:02;13.35;;;10.60;;
53261;SDS011;39658;51.090;-1.786;2022-09-03T10:17:41;14.07;;;10.55;;
53261;SDS011;39658;51.090;-1.786;2022-09-03T10:20:18;14.35;;;10.90;;
53261;SDS011;39658;51.090;-1.786;2022-09-03T10:22:57;12.32;;;9.52;;
53261;SDS011;39658;51.090;-1.786;2022-09-03T10:25:29;14.47;;;10.57;;
53261;SDS011;39658;51.090;-1.786;2022-09-03T10:28:04;11.73;;;9.55;;
53261;SDS011;39658;51.090;-1.786;2022-09-03T10:30:36;12.65;;;9.57;;
53261;SDS011;39658;51.090;-1.786;2022-09-03T10:33:14;14.68;;;10.55;;
53261;SDS011;39658;51.090;-1.786;2022-09-03T10:35:46;13.43;;;10.38;;
53261;SDS011;39658;51.090;-1.786;2022-09-03T10:38:22;13.87;;;10.57;;
53261;SDS011;39658;51.090;-1.786;2022-09-03T10:40:57;15.32;;;10.45;;
53261;SDS011;39658;51.090;-1.786;2022-09-03T10:43:38;12.93;;;10.90;;
53261;SDS011;39658;51.090;-1.786;2022-09-03T10:46:16;13.77;;;10.88;;
53261;SDS011;39658;51.090;-1.786;2022-09-03T10:48:51;18.35;;;11.73;;
53261;SDS011;39658;51.090;-1.786;2022-09-03T10:51:30;16.48;;;10.98;;
53261;SDS011;39658;51.090;-1.786;2022-09-03T10:54:09;15.65;;;10.77;;
53261;SDS011;39658;51.090;-1.786;2022-09-03T10:56:49;17.77;;;12.98;;
53261;SDS011;39658;51.090;-1.786;2022-09-03T10:59:29;18.02;;;12.57;;
53261;SDS011;39658;51.090;-1.786;2022-09-03T11:02:07;17.40;;;11.75;;
53261;SDS011;39658;51.090;-1.786;2022-09-03T11:04:52;20.75;;;12.27;;
53261;SDS011;39658;51.090;-1.786;2022-09-03T11:07:27;17.75;;;12.65;;
53261;SDS011;39658;51.090;-1.786;2022-09-03T11:10:04;18.23;;;13.50;;
53261;SDS011;39658;51.090;-1.786;2022-09-03T11:12:39;19.50;;;15.73;;
53261;SDS011;39658;51.090;-1.786;2022-09-03T11:15:11;18.08;;;14.15;;
53261;SDS011;39658;51.090;-1.786;2022-09-03T11:17:45;16.10;;;13.38;;
53261;SDS011;39658;51.090;-1.786;2022-09-03T11:20:16;16.52;;;13.13;;
53261;SDS011;39658;51.090;-1.786;2022-09-03T11:22:45;17.00;;;11.95;;
53261;SDS011;39658;51.090;-1.786;2022-09-03T11:25:18;17.52;;;12.10;;
53261;SDS011;39658;51.090;-1.786;2022-09-03T11:27:52;16.05;;;11.32;;
53261;SDS011;39658;51.090;-1.786;2022-09-03T11:30:27;15.90;;;10.50;;
53261;SDS011;39658;51.090;-1.786;2022-09-03T11:33:05;13.30;;;9.40;;
53261;SDS011;39658;51.090;-1.786;2022-09-03T11:35:39;14.07;;;10.50;;
53261;SDS011;39658;51.090;-1.786;2022-09-03T11:38:18;18.97;;;12.00;;
53261;SDS011;39658;51.090;-1.786;2022-09-03T11:40:58;19.60;;;10.48;;
53261;SDS011;39658;51.090;-1.786;2022-09-03T11:43:28;13.00;;;11.02;;
53261;SDS011;39658;51.090;-1.786;2022-09-03T11:46:06;17.83;;;11.25;;
53261;SDS011;39658;51.090;-1.786;2022-09-03T11:48:38;14.27;;;10.02;;
53261;SDS011;39658;51.090;-1.786;2022-09-03T11:51:18;14.48;;;9.50;;
53261;SDS011;39658;51.090;-1.786;2022-09-03T11:53:53;16.40;;;8.95;;
53261;SDS011;39658;51.090;-1.786;2022-09-03T11:56:22;13.60;;;7.68;;
53261;SDS011;39658;51.090;-1.786;2022-09-03T11:58:59;11.98;;;7.45;;
53261;SDS011;39658;51.090;-1.786;2022-09-03T12:01:29;12.77;;;8.27;;
53261;SDS011;39658;51.090;-1.786;2022-09-03T12:03:57;14.07;;;8.05;;
53261;SDS011;39658;51.090;-1.786;2022-09-03T12:06:32;17.33;;;7.45;;
53261;SDS011;39658;51.090;-1.786;2022-09-03T12:09:29;10.30;;;6.70;;
53261;SDS011;39658;51.090;-1.786;2022-09-03T12:12:17;11.45;;;7.43;;
53261;SDS011;39658;51.090;-1.786;2022-09-03T12:15:33;15.48;;;8.43;;
53261;SDS011;39658;51.090;-1.786;2022-09-03T12:18:21;13.00;;;7.85;;
53261;SDS011;39658;51.090;-1.786;2022-09-03T12:20:59;12.63;;;7.68;;
53261;SDS011;39658;51.090;-1.786;2022-09-03T12:23:28;13.52;;;8.38;;
53261;SDS011;39658;51.090;-1.786;2022-09-03T12:25:56;13.32;;;8.32;;
53261;SDS011;39658;51.090;-1.786;2022-09-03T12:28:27;14.73;;;8.13;;
53261;SDS011;39658;51.090;-1.786;2022-09-03T12:31:04;13.48;;;7.80;;
53261;SDS011;39658;51.090;-1.786;2022-09-03T12:33:46;15.52;;;8.32;;
53261;SDS011;39658;51.090;-1.786;2022-09-03T12:36:13;17.13;;;7.57;;
53261;SDS011;39658;51.090;-1.786;2022-09-03T12:38:41;12.98;;;8.50;;
53261;SDS011;39658;51.090;-1.786;2022-09-03T12:41:18;13.45;;;8.13;;
53261;SDS011;39658;51.090;-1.786;2022-09-03T12:43:51;12.13;;;8.32;;
53261;SDS011;39658;51.090;-1.786;2022-09-03T12:46:21;17.05;;;8.75;;
53261;SDS011;39658;51.090;-1.786;2022-09-03T12:48:53;13.45;;;8.10;;
53261;SDS011;39658;51.090;-1.786;2022-09-03T12:51:21;16.33;;;7.93;;
53261;SDS011;39658;51.090;-1.786;2022-09-03T12:53:48;12.75;;;8.38;;
53261;SDS011;39658;51.090;-1.786;2022-09-03T12:56:17;12.88;;;8.45;;
53261;SDS011;39658;51.090;-1.786;2022-09-03T12:58:47;19.45;;;9.25;;
53261;SDS011;39658;51.090;-1.786;2022-09-03T13:01:21;16.52;;;8.88;;
53261;SDS011;39658;51.090;-1.786;2022-09-03T13:03:52;15.18;;;8.93;;
53261;SDS011;39658;51.090;-1.786;2022-09-03T13:06:22;14.02;;;8.32;;
53261;SDS011;39658;51.090;-1.786;2022-09-03T13:08:55;16.73;;;9.20;;
53261;SDS011;39658;51.090;-1.786;2022-09-03T13:11:24;13.50;;;8.10;;
53261;SDS011;39658;51.090;-1.786;2022-09-03T13:13:54;18.17;;;9.20;;
53261;SDS011;39658;51.090;-1.786;2022-09-03T13:16:36;14.95;;;8.80;;
53261;SDS011;39658;51.090;-1.786;2022-09-03T13:19:31;14.70;;;9.33;;
53261;SDS011;39658;51.090;-1.786;2022-09-03T13:22:09;13.32;;;8.43;;
53261;SDS011;39658;51.090;-1.786;2022-09-03T13:24:51;16.20;;;9.82;;
53261;SDS011;39658;51.090;-1.786;2022-09-03T13:27:30;16.70;;;9.50;;
53261;SDS011;39658;51.090;-1.786;2022-09-03T13:30:06;12.45;;;9.00;;
53261;SDS011;39658;51.090;-1.786;2022-09-03T13:32:36;15.27;;;10.07;;
53261;SDS011;39658;51.090;-1.786;2022-09-03T13:35:12;12.85;;;8.80;;
53261;SDS011;39658;51.090;-1.786;2022-09-03T13:37:47;12.27;;;9.05;;
53261;SDS011;39658;51.090;-1.786;2022-09-03T13:40:22;15.05;;;9.52;;
53261;SDS011;39658;51.090;-1.786;2022-09-03T13:42:53;14.50;;;8.57;;
53261;SDS011;39658;51.090;-1.786;2022-09-03T13:45:30;17.23;;;9.82;;
53261;SDS011;39658;51.090;-1.786;2022-09-03T13:48:05;16.50;;;9.13;;
53261;SDS011;39658;51.090;-1.786;2022-09-03T13:50:56;14.50;;;7.97;;
53261;SDS011;39658;51.090;-1.786;2022-09-03T13:53:35;14.35;;;7.10;;
53261;SDS011;39658;51.090;-1.786;2022-09-03T13:56:15;11.88;;;6.63;;
53261;SDS011;39658;51.090;-1.786;2022-09-03T13:58:50;13.02;;;6.50;;
53261;SDS011;39658;51.090;-1.786;2022-09-03T14:01:26;11.98;;;6.38;;
53261;SDS011;39658;51.090;-1.786;2022-09-03T14:04:10;10.43;;;6.30;;
53261;SDS011;39658;51.090;-1.786;2022-09-03T14:06:43;11.57;;;5.90;;
53261;SDS011;39658;51.090;-1.786;2022-09-03T14:09:19;11.93;;;5.78;;
53261;SDS011;39658;51.090;-1.786;2022-09-03T14:11:55;11.52;;;5.60;;
53261;SDS011;39658;51.090;-1.786;2022-09-03T14:14:33;12.93;;;5.25;;
53261;SDS011;39658;51.090;-1.786;2022-09-03T14:17:11;10.18;;;5.50;;
53261;SDS011;39658;51.090;-1.786;2022-09-03T14:19:45;11.93;;;4.88;;
53261;SDS011;39658;51.090;-1.786;2022-09-03T14:22:17;16.83;;;6.18;;
53261;SDS011;39658;51.090;-1.786;2022-09-03T14:24:49;9.15;;;5.18;;
53261;SDS011;39658;51.090;-1.786;2022-09-03T14:27:21;10.80;;;4.28;;
53261;SDS011;39658;51.090;-1.786;2022-09-03T14:29:52;9.57;;;4.30;;
53261;SDS011;39658;51.090;-1.786;2022-09-03T14:32:27;9.93;;;4.35;;
53261;SDS011;39658;51.090;-1.786;2022-09-03T14:35:01;11.27;;;4.38;;
53261;SDS011;39658;51.090;-1.786;2022-09-03T14:40:33;9.07;;;4.38;;
53261;SDS011;39658;51.090;-1.786;2022-09-03T14:43:11;10.13;;;4.40;;
53261;SDS011;39658;51.090;-1.786;2022-09-03T14:46:05;10.80;;;5.03;;
53261;SDS011;39658;51.090;-1.786;2022-09-03T14:48:55;9.90;;;5.43;;
53261;SDS011;39658;51.090;-1.786;2022-09-03T14:51:43;10.27;;;4.57;;
53261;SDS011;39658;51.090;-1.786;2022-09-03T14:54:26;11.48;;;4.88;;
53261;SDS011;39658;51.090;-1.786;2022-09-03T14:57:13;9.95;;;3.95;;